NCAR-RAP Real-Time Weather Data

Output produced by METARs form (17 September 2019  17:22 UTC)
found at http://weather.rap.ucar.edu/surface/
 
KPHL 171654Z 04004KT 10SM FEW060 FEW100 24/08 A3014 RMK AO2 SLP205 T02440083
KPHL 171554Z 05008KT 10SM FEW060 FEW100 24/09 A3015 RMK SLP209 T02440089
KPHL 171454Z 07009KT 10SM FEW050 FEW090 23/09 A3015 RMK AO2 SLP210 T02280094 51013
KPHL 171354Z 07009G16KT 10SM SCT039 SCT065 22/10 A3015 RMK AO2 SLP209 T02170100
KPHL 171254Z 05012KT 10SM SCT040 BKN065 21/11 A3013 RMK AO2 SLP203 T02110106
KPHL 171154Z 06010G17KT 10SM FEW035 FEW047 SCT065 20/11 A3011 RMK SLP197 T02000106 10211 20194 53019
KPHL 171054Z 05009G17KT 10SM SCT035 SCT047 BKN065 20/11 A3010 RMK AO2 SLP190 T02000106 $
KPHL 170954Z 06010KT 10SM FEW026 OVC035 21/13 A3007 RMK AO2 SLP183 T02060133 $
KPHL 170854Z 06008KT 10SM BKN040 BKN070 BKN110 21/17 A3006 RMK SLP178 T02110172 53002
KPHL 170754Z 05005KT 10SM SCT040 BKN075 OVC110 21/17 A3006 RMK AO2 SLP177 T02110172 $
KPHL 170654Z 05006KT 10SM BKN040 BKN070 21/17 A3005 RMK AO2 SLP177 T02060172 $
KPHL 170554Z 05003KT 10SM BKN044 BKN070 OVC120 21/17 A3005 RMK AO2 SLP176 T02060172 10256 20206 51005 $
KPHL 170454Z 00000KT 10SM SCT060 BKN120 OVC160 21/17 A3005 RMK AO2 SLP175 T02110172 402890194 $
KPHL 170354Z 06004KT 10SM BKN120 BKN200 OVC280 21/18 A3005 RMK AO2 SLP174 T02060178 $
KPHL 170254Z 08008KT 10SM SCT120 SCT200 BKN280 22/18 A3004 RMK AO2 SLP171 T02170178 52015 $
KPHL 170054Z 07010KT 10SM SCT070 BKN120 23/17 A3001 RMK AO2 SLP161 T02330172 $
KPHL 162354Z 10005KT 10SM BKN065 OVC120 26/17 A3000 RMK AO2 SLP156 T02560172 10289 20256 53007 $
KPHL 162254Z 02007KT 10SM FEW040 BKN065 OVC120 27/14 A2998 RMK AO2 SLP153 T02720144 $
KPHL 162154Z 30004KT 10SM FEW040 BKN065 OVC120 28/13 A2998 RMK AO2 SLP150 T02780133
KPHL 162054Z 15004KT 10SM FEW040 BKN070 BKN100 OVC260 28/14 A2997 RMK AO2 SLP149 T02780139 56014
KPHL 161954Z 19005KT 10SM FEW040 BKN070 BKN120 OVC260 28/12 A2998 RMK AO2 SLP152 T02780122